M/T Havva Ana — V7RE3 — position and weather

sailwx.info

Track history (hours):
 
Tides and Currents Weather Stations Pressure Air Temp Water Temp Dewpoint Dewpoint Depression Visibility Wind Speed Wind Dir Waves Ship Positions

M/T Havva Ana

Last reported at 2016-Jul-01 13:33 UTC. Time now 2016-Jul-01 13:42 UTC.
Position N 52°03' E 003°50'.

Length 124 m; draft 7.4 m.

Type: Tanker. MMSI: 538003488.

Date/timePositionNaut miles runAvg speedWind from/ knotsBaromVisibWave heightAir tempDewpointWater temp
2016-Jul-01 13:33N 52°03' E 003°50'9 9.2
2016-Jul-01 12:33N 51°59' E 004°04'10 9.8
2016-Jul-01 11:33N 51°54' E 004°17'1 1.2
2016-Jul-01 10:28N 51°53' E 004°16'0 0.0
2016-Jul-01 07:10N 51°53' E 004°16'0 0.0
2016-Jul-01 06:31N 51°53' E 004°16'0 0.0
2016-Jul-01 04:31N 51°53' E 004°16'0 0.0
2016-Jul-01 03:22N 51°53' E 004°16'0 0.0
2016-Jul-01 02:31N 51°53' E 004°16'0 0.0
2016-Jul-01 01:25N 51°53' E 004°16'0 0.0
2016-Jul-01 00:28N 51°53' E 004°16'0 0.0
2016-Jun-30 23:10N 51°53' E 004°16'0 0.0
2016-Jun-30 22:31N 51°53' E 004°16'0 0.0
2016-Jun-30 21:28N 51°53' E 004°16'0 0.0
2016-Jun-30 20:28N 51°53' E 004°16'0 0.0
2016-Jun-30 19:31N 51°53' E 004°16'0 0.0
2016-Jun-30 14:22N 51°53' E 004°16'0 0.0
2016-Jun-30 13:31N 51°53' E 004°16'0 0.0
2016-Jun-30 12:28N 51°53' E 004°16'0 0.0
2016-Jun-30 11:31N 51°53' E 004°16'0 0.0
2016-Jun-30 10:31N 51°53' E 004°16'0 0.0
2016-Jun-30 09:31N 51°53' E 004°16'0 0.0
2016-Jun-30 08:19N 51°53' E 004°16'0 0.0
2016-Jun-30 07:31N 51°53' E 004°16'0 0.0
2016-Jun-30 06:31N 51°53' E 004°16'0 0.0
2016-Jun-30 05:28N 51°53' E 004°16'0 0.0
2016-Jun-30 04:28N 51°53' E 004°16'0 0.0
2016-Jun-30 03:28N 51°53' E 004°16'0 0.0
2016-Jun-30 02:28N 51°53' E 004°16'0 0.0
2016-Jun-30 01:25N 51°53' E 004°16'0 0.0
2016-Jun-30 00:16N 51°53' E 004°16'0 0.2
2016-Jun-29 23:34N 51°53' E 004°16'4 4.0
2016-Jun-29 22:33N 51°56' E 004°13'1110.8
2016-Jun-29 21:34N 52°01' E 003°57'9 9.0
2016-Jun-29 20:33N 52°07' E 003°46'6 6.4
2016-Jun-29 19:33N 52°14' E 003°46'7 7.2
2016-Jun-29 18:34N 52°21' E 003°48'12 1.5
2016-Jun-29 10:06N 52°31' E 003°59'610.0
2016-Jun-29 09:33N 52°31' E 004°09'1010.0
2016-Jun-29 08:34N 52°30' E 004°25'7 7.1
2016-Jun-29 07:33N 52°28' E 004°36'5 5.4
2016-Jun-29 06:34N 52°26' E 004°44'2 2.3
2016-Jun-29 05:31N 52°24' E 004°47'0 0.0
2016-Jun-29 04:19N 52°24' E 004°47'0 0.0
2016-Jun-29 03:31N 52°24' E 004°47'0 0.0
2016-Jun-29 02:31N 52°24' E 004°47'0 0.0
2016-Jun-29 01:31N 52°24' E 004°47'0 0.0
2016-Jun-29 00:31N 52°24' E 004°47'0 0.0
2016-Jun-28 23:28N 52°24' E 004°47'0 0.0
2016-Jun-28 22:31N 52°24' E 004°47'0 0.0
2016-Jun-28 21:31N 52°24' E 004°47'0 0.0
2016-Jun-28 20:31N 52°24' E 004°47'0 0.0
2016-Jun-28 19:31N 52°24' E 004°47'0 0.0
2016-Jun-28 18:31N 52°24' E 004°47'0 0.0
2016-Jun-28 17:31N 52°24' E 004°47'0 0.0
2016-Jun-28 16:31N 52°24' E 004°47'0 0.0
2016-Jun-28 15:31N 52°24' E 004°47'0 0.0
2016-Jun-28 14:31N 52°24' E 004°47'0 0.0
2016-Jun-28 13:28N 52°24' E 004°47'0 0.0
2016-Jun-28 12:31N 52°24' E 004°47'0 0.0
2016-Jun-28 11:31N 52°24' E 004°47'2 1.6
2016-Jun-28 10:33N 52°26' E 004°47'2 2.2
2016-Jun-28 09:33N 52°24' E 004°49'0 0.0
2016-Jun-28 08:33N 52°24' E 004°49'0 0.0
2016-Jun-28 07:33N 52°24' E 004°49'0 0.0
2016-Jun-28 06:33N 52°24' E 004°49'0 0.0
2016-Jun-28 04:33N 52°24' E 004°49'0 0.0
2016-Jun-28 03:33N 52°24' E 004°49'0 0.0
2016-Jun-28 02:33N 52°24' E 004°49'0 0.0
2016-Jun-28 01:33N 52°24' E 004°49'0 0.0
2016-Jun-28 00:33N 52°24' E 004°49'0 0.0
2016-Jun-27 23:33N 52°24' E 004°49'0 0.0
2016-Jun-27 22:33N 52°24' E 004°49'0 0.0
2016-Jun-27 21:33N 52°24' E 004°49'0 0.0
2016-Jun-27 20:33N 52°24' E 004°49'0 0.0
2016-Jun-27 19:24N 52°24' E 004°49'0 0.0
2016-Jun-27 18:33N 52°24' E 004°49'0 0.0
2016-Jun-27 17:33N 52°24' E 004°49'0 0.0
2016-Jun-27 16:33N 52°24' E 004°49'0 0.0
2016-Jun-27 15:33N 52°24' E 004°49'0 0.0
2016-Jun-27 14:33N 52°24' E 004°49'0 0.0
2016-Jun-27 13:33N 52°24' E 004°49'0 0.0
2016-Jun-27 12:33N 52°24' E 004°49'0 0.0
2016-Jun-27 11:33N 52°24' E 004°49'0 0.0
2016-Jun-27 10:33N 52°24' E 004°49'0 0.0
2016-Jun-27 09:33N 52°24' E 004°49'0 0.0
2016-Jun-27 08:33N 52°24' E 004°49'0 0.0
2016-Jun-27 07:33N 52°24' E 004°49'0 0.0
2016-Jun-27 06:30N 52°24' E 004°49'0 0.0
2016-Jun-27 05:33N 52°24' E 004°49'0 0.0
2016-Jun-27 04:33N 52°24' E 004°49'0 0.0
2016-Jun-27 03:33N 52°24' E 004°49'0 0.0
2016-Jun-27 02:33N 52°24' E 004°49'0 0.0
2016-Jun-27 01:30N 52°24' E 004°49'0 0.0
2016-Jun-27 00:33N 52°24' E 004°49'0 0.0
2016-Jun-26 23:33N 52°24' E 004°49'0 0.0
2016-Jun-26 22:33N 52°24' E 004°49'0 0.0
2016-Jun-26 21:33N 52°24' E 004°49'0 0.0
2016-Jun-26 20:33N 52°24' E 004°49'0 0.0
2016-Jun-26 19:30N 52°24' E 004°49'0 0.0
2016-Jun-26 18:30N 52°24' E 004°49'0 0.0
2016-Jun-26 17:33N 52°24' E 004°49'0 0.0
2016-Jun-26 16:33N 52°24' E 004°49'0 0.0
2016-Jun-26 15:33N 52°24' E 004°49'0 0.0
2016-Jun-26 14:33N 52°24' E 004°49'0 0.0
2016-Jun-26 13:33N 52°24' E 004°49'0 0.0
2016-Jun-26 12:33N 52°24' E 004°49'0 0.0
2016-Jun-26 11:33N 52°24' E 004°49'0 0.0
2016-Jun-26 10:33N 52°24' E 004°49'0 0.0
2016-Jun-26 09:33N 52°24' E 004°49'0 0.0
2016-Jun-26 08:33N 52°24' E 004°49'0 0.0
2016-Jun-26 07:33N 52°24' E 004°49'0 0.0
2016-Jun-26 06:30N 52°24' E 004°49'0 0.0
2016-Jun-26 05:33N 52°24' E 004°49'0 0.0
2016-Jun-26 04:33N 52°24' E 004°49'0 0.0
2016-Jun-26 03:33N 52°24' E 004°49'0 0.0
2016-Jun-26 02:33N 52°24' E 004°49'0 0.0
2016-Jun-26 01:33N 52°24' E 004°49'0 0.0
2016-Jun-26 00:33N 52°24' E 004°49'0 0.0
2016-Jun-25 23:33N 52°24' E 004°49'0 0.0
2016-Jun-25 22:33N 52°24' E 004°49'0 0.0
2016-Jun-25 21:33N 52°24' E 004°49'0 0.0
2016-Jun-25 20:33N 52°24' E 004°49'0 0.0
2016-Jun-25 19:33N 52°24' E 004°49'0 0.0
2016-Jun-25 18:33N 52°24' E 004°49'0 0.0
2016-Jun-25 17:33N 52°24' E 004°49'0 0.0
2016-Jun-25 16:30N 52°24' E 004°49'0 0.0
2016-Jun-25 15:33N 52°24' E 004°49'0 0.0
2016-Jun-25 14:33N 52°24' E 004°49'0 0.0
2016-Jun-25 13:33N 52°24' E 004°49'0 0.0
2016-Jun-25 12:33N 52°24' E 004°49'0 0.0
2016-Jun-25 11:33N 52°24' E 004°49'0 0.0
2016-Jun-25 10:33N 52°24' E 004°49'0 0.0
2016-Jun-25 09:30N 52°24' E 004°49'0 0.0
2016-Jun-25 08:33N 52°24' E 004°49'0 0.0
2016-Jun-25 07:33N 52°24' E 004°49'0 0.0
2016-Jun-25 06:33N 52°24' E 004°49'0 0.0
2016-Jun-25 05:33N 52°24' E 004°49'0 0.0
2016-Jun-25 04:30N 52°24' E 004°49'0 0.0
2016-Jun-25 03:33N 52°24' E 004°49'0 0.0
2016-Jun-25 02:33N 52°24' E 004°49'0 0.0
2016-Jun-25 01:33N 52°24' E 004°49'0 0.0
2016-Jun-25 00:33N 52°24' E 004°49'0 0.0
2016-Jun-24 23:33N 52°24' E 004°49'0 0.0
2016-Jun-24 22:33N 52°24' E 004°49'0 0.0
2016-Jun-24 21:33N 52°24' E 004°49'0 0.0
2016-Jun-24 20:33N 52°24' E 004°49'0 0.0
2016-Jun-24 19:33N 52°24' E 004°49'0 0.0
2016-Jun-24 18:33N 52°24' E 004°49'0 0.0
2016-Jun-24 17:30N 52°24' E 004°49'0 0.0
2016-Jun-24 16:33N 52°24' E 004°49'0 0.0
2016-Jun-24 15:33N 52°24' E 004°49'0 0.0
2016-Jun-24 14:33N 52°24' E 004°49'0 0.0
2016-Jun-24 13:33N 52°24' E 004°49'0 0.0
2016-Jun-24 12:33N 52°24' E 004°49'0 0.0
2016-Jun-24 11:33N 52°24' E 004°49'0 0.0
2016-Jun-24 10:33N 52°24' E 004°49'0 0.0
2016-Jun-24 09:33N 52°24' E 004°49'0 0.0
2016-Jun-24 08:33N 52°24' E 004°49'0 0.0
2016-Jun-24 07:33N 52°24' E 004°49'0 0.0
2016-Jun-24 04:33N 52°24' E 004°49'0 0.0
2016-Jun-24 03:33N 52°24' E 004°49'0 0.0
2016-Jun-24 02:30N 52°24' E 004°49'0 0.0
2016-Jun-24 01:30N 52°24' E 004°49'0 0.0
2016-Jun-24 00:30N 52°24' E 004°49'0 0.0
2016-Jun-23 23:33N 52°24' E 004°49'0 0.0
2016-Jun-23 22:33N 52°24' E 004°49'0 0.0
2016-Jun-23 21:33N 52°24' E 004°49'0 0.0
2016-Jun-23 20:33N 52°24' E 004°49'0 0.0
2016-Jun-23 19:33N 52°24' E 004°49'0 0.0
2016-Jun-23 18:33N 52°24' E 004°49'0 0.0
2016-Jun-23 17:33N 52°24' E 004°49'0 0.0
2016-Jun-23 16:33N 52°24' E 004°49'0 0.0
2016-Jun-23 15:33N 52°24' E 004°49'0 0.0
2016-Jun-23 14:33N 52°24' E 004°49'0 0.0
2016-Jun-23 13:33N 52°24' E 004°49'0 0.0
2016-Jun-23 12:33N 52°24' E 004°49'0 0.0
2016-Jun-23 11:33N 52°24' E 004°49'0 0.0
2016-Jun-23 10:27N 52°24' E 004°49'0 0.0
2016-Jun-23 09:33N 52°24' E 004°49'0 0.0
2016-Jun-23 08:33N 52°24' E 004°49'0 0.0
2016-Jun-23 07:33N 52°24' E 004°49'0 0.0
2016-Jun-23 05:33N 52°24' E 004°49'0 0.0
2016-Jun-23 04:33N 52°24' E 004°49'0 0.0
2016-Jun-23 03:33N 52°24' E 004°49'0 0.0
2016-Jun-23 02:33N 52°24' E 004°49'0 0.0
2016-Jun-23 01:33N 52°24' E 004°49'0 0.0
2016-Jun-23 00:33N 52°24' E 004°49'0 0.0
2016-Jun-22 23:33N 52°24' E 004°49'0 0.0
2016-Jun-22 22:33N 52°24' E 004°49'0 0.0
2016-Jun-22 21:33N 52°24' E 004°49'0 0.0
2016-Jun-22 20:33N 52°24' E 004°49'0 0.0
2016-Jun-22 19:33N 52°24' E 004°49'0 0.0
2016-Jun-22 18:33N 52°24' E 004°49'0 0.0
2016-Jun-22 17:33N 52°24' E 004°49'0 0.0
2016-Jun-22 16:33N 52°24' E 004°49'0 0.0
2016-Jun-22 15:33N 52°24' E 004°49'1 1.5
2016-Jun-22 14:34N 52°25' E 004°49'8 8.2
2016-Jun-22 13:33N 52°28' E 004°36'1 0.7
2016-Jun-22 12:34N 52°28' E 004°35'8 8.3
2016-Jun-22 11:33N 52°28' E 004°21'1111.1
2016-Jun-22 10:33N 52°28' E 004°03'3 1.6
2016-Jun-22 08:28N 52°26' E 003°59'0 0.1
2016-Jun-22 07:31N 52°26' E 003°59'0 0.0
2016-Jun-22 06:31N 52°26' E 003°59'0 0.0
2016-Jun-22 05:28N 52°26' E 003°59'0 0.0
2016-Jun-22 04:31N 52°26' E 003°59'0 0.0
2016-Jun-22 03:31N 52°26' E 003°59'0 0.0
2016-Jun-22 02:19N 52°26' E 003°59'0 0.0
2016-Jun-22 01:22N 52°26' E 003°59'0 0.1
2016-Jun-21 23:22N 52°26' E 003°59'0 0.0
2016-Jun-21 20:16N 52°26' E 003°59'0 0.2
2016-Jun-21 19:28N 52°26' E 003°59'0 0.0
2016-Jun-21 18:22N 52°26' E 003°59'0 0.0
2016-Jun-21 17:31N 52°26' E 003°59'0 0.0
2016-Jun-21 16:22N 52°26' E 003°59'0 0.0
2016-Jun-21 15:22N 52°26' E 003°59'0 0.0
2016-Jun-21 14:31N 52°26' E 003°59'  
Track history (hours):
 
Tides and Currents Weather Stations Pressure Air Temp Water Temp Dewpoint Dewpoint Depression Visibility Wind Speed Wind Dir Waves Ship Positions

M/T Havva Ana

Last reported at 2016-Jul-01 13:33 UTC. Time now 2016-Jul-01 13:42 UTC.
Position N 52°03' E 003°50'.

Length 124 m; draft 7.4 m.

Type: Tanker. MMSI: 538003488.

Date/timePositionNaut miles runAvg speedWind from/ knotsBaromVisibWave heightAir tempDewpointWater temp
2016-Jul-01 13:33N 52°03' E 003°50'9 9.2
2016-Jul-01 12:33N 51°59' E 004°04'10 9.8
2016-Jul-01 11:33N 51°54' E 004°17'1 1.2
2016-Jul-01 10:28N 51°53' E 004°16'0 0.0
2016-Jul-01 07:10N 51°53' E 004°16'0 0.0
2016-Jul-01 06:31N 51°53' E 004°16'0 0.0
2016-Jul-01 04:31N 51°53' E 004°16'0 0.0
2016-Jul-01 03:22N 51°53' E 004°16'0 0.0
2016-Jul-01 02:31N 51°53' E 004°16'0 0.0
2016-Jul-01 01:25N 51°53' E 004°16'0 0.0
2016-Jul-01 00:28N 51°53' E 004°16'0 0.0
2016-Jun-30 23:10N 51°53' E 004°16'0 0.0
2016-Jun-30 22:31N 51°53' E 004°16'0 0.0
2016-Jun-30 21:28N 51°53' E 004°16'0 0.0
2016-Jun-30 20:28N 51°53' E 004°16'0 0.0
2016-Jun-30 19:31N 51°53' E 004°16'0 0.0
2016-Jun-30 14:22N 51°53' E 004°16'0 0.0
2016-Jun-30 13:31N 51°53' E 004°16'0 0.0
2016-Jun-30 12:28N 51°53' E 004°16'0 0.0
2016-Jun-30 11:31N 51°53' E 004°16'0 0.0
2016-Jun-30 10:31N 51°53' E 004°16'0 0.0
2016-Jun-30 09:31N 51°53' E 004°16'0 0.0
2016-Jun-30 08:19N 51°53' E 004°16'0 0.0
2016-Jun-30 07:31N 51°53' E 004°16'0 0.0
2016-Jun-30 06:31N 51°53' E 004°16'0 0.0
2016-Jun-30 05:28N 51°53' E 004°16'0 0.0
2016-Jun-30 04:28N 51°53' E 004°16'0 0.0
2016-Jun-30 03:28N 51°53' E 004°16'0 0.0
2016-Jun-30 02:28N 51°53' E 004°16'0 0.0
2016-Jun-30 01:25N 51°53' E 004°16'0 0.0
2016-Jun-30 00:16N 51°53' E 004°16'0 0.2
2016-Jun-29 23:34N 51°53' E 004°16'4 4.0
2016-Jun-29 22:33N 51°56' E 004°13'1110.8
2016-Jun-29 21:34N 52°01' E 003°57'9 9.0
2016-Jun-29 20:33N 52°07' E 003°46'6 6.4
2016-Jun-29 19:33N 52°14' E 003°46'7 7.2
2016-Jun-29 18:34N 52°21' E 003°48'12 1.5
2016-Jun-29 10:06N 52°31' E 003°59'610.0
2016-Jun-29 09:33N 52°31' E 004°09'1010.0
2016-Jun-29 08:34N 52°30' E 004°25'7 7.1
2016-Jun-29 07:33N 52°28' E 004°36'5 5.4
2016-Jun-29 06:34N 52°26' E 004°44'2 2.3
2016-Jun-29 05:31N 52°24' E 004°47'0 0.0
2016-Jun-29 04:19N 52°24' E 004°47'0 0.0
2016-Jun-29 03:31N 52°24' E 004°47'0 0.0
2016-Jun-29 02:31N 52°24' E 004°47'0 0.0
2016-Jun-29 01:31N 52°24' E 004°47'0 0.0
2016-Jun-29 00:31N 52°24' E 004°47'0 0.0
2016-Jun-28 23:28N 52°24' E 004°47'0 0.0
2016-Jun-28 22:31N 52°24' E 004°47'0 0.0
2016-Jun-28 21:31N 52°24' E 004°47'0 0.0
2016-Jun-28 20:31N 52°24' E 004°47'0 0.0
2016-Jun-28 19:31N 52°24' E 004°47'0 0.0
2016-Jun-28 18:31N 52°24' E 004°47'0 0.0
2016-Jun-28 17:31N 52°24' E 004°47'0 0.0
2016-Jun-28 16:31N 52°24' E 004°47'0 0.0
2016-Jun-28 15:31N 52°24' E 004°47'0 0.0
2016-Jun-28 14:31N 52°24' E 004°47'0 0.0
2016-Jun-28 13:28N 52°24' E 004°47'0 0.0
2016-Jun-28 12:31N 52°24' E 004°47'0 0.0
2016-Jun-28 11:31N 52°24' E 004°47'2 1.6
2016-Jun-28 10:33N 52°26' E 004°47'2 2.2
2016-Jun-28 09:33N 52°24' E 004°49'0 0.0
2016-Jun-28 08:33N 52°24' E 004°49'0 0.0
2016-Jun-28 07:33N 52°24' E 004°49'0 0.0
2016-Jun-28 06:33N 52°24' E 004°49'0 0.0
2016-Jun-28 04:33N 52°24' E 004°49'0 0.0
2016-Jun-28 03:33N 52°24' E 004°49'0 0.0
2016-Jun-28 02:33N 52°24' E 004°49'0 0.0
2016-Jun-28 01:33N 52°24' E 004°49'0 0.0
2016-Jun-28 00:33N 52°24' E 004°49'0 0.0
2016-Jun-27 23:33N 52°24' E 004°49'0 0.0
2016-Jun-27 22:33N 52°24' E 004°49'0 0.0
2016-Jun-27 21:33N 52°24' E 004°49'0 0.0
2016-Jun-27 20:33N 52°24' E 004°49'0 0.0
2016-Jun-27 19:24N 52°24' E 004°49'0 0.0
2016-Jun-27 18:33N 52°24' E 004°49'0 0.0
2016-Jun-27 17:33N 52°24' E 004°49'0 0.0
2016-Jun-27 16:33N 52°24' E 004°49'0 0.0
2016-Jun-27 15:33N 52°24' E 004°49'0 0.0
2016-Jun-27 14:33N 52°24' E 004°49'0 0.0
2016-Jun-27 13:33N 52°24' E 004°49'0 0.0
2016-Jun-27 12:33N 52°24' E 004°49'0 0.0
2016-Jun-27 11:33N 52°24' E 004°49'0 0.0
2016-Jun-27 10:33N 52°24' E 004°49'0 0.0
2016-Jun-27 09:33N 52°24' E 004°49'0 0.0
2016-Jun-27 08:33N 52°24' E 004°49'0 0.0
2016-Jun-27 07:33N 52°24' E 004°49'0 0.0
2016-Jun-27 06:30N 52°24' E 004°49'0 0.0
2016-Jun-27 05:33N 52°24' E 004°49'0 0.0
2016-Jun-27 04:33N 52°24' E 004°49'0 0.0
2016-Jun-27 03:33N 52°24' E 004°49'0 0.0
2016-Jun-27 02:33N 52°24' E 004°49'0 0.0
2016-Jun-27 01:30N 52°24' E 004°49'0 0.0
2016-Jun-27 00:33N 52°24' E 004°49'0 0.0
2016-Jun-26 23:33N 52°24' E 004°49'0 0.0
2016-Jun-26 22:33N 52°24' E 004°49'0 0.0
2016-Jun-26 21:33N 52°24' E 004°49'0 0.0
2016-Jun-26 20:33N 52°24' E 004°49'0 0.0
2016-Jun-26 19:30N 52°24' E 004°49'0 0.0
2016-Jun-26 18:30N 52°24' E 004°49'0 0.0
2016-Jun-26 17:33N 52°24' E 004°49'0 0.0
2016-Jun-26 16:33N 52°24' E 004°49'0 0.0
2016-Jun-26 15:33N 52°24' E 004°49'0 0.0
2016-Jun-26 14:33N 52°24' E 004°49'0 0.0
2016-Jun-26 13:33N 52°24' E 004°49'0 0.0
2016-Jun-26 12:33N 52°24' E 004°49'0 0.0
2016-Jun-26 11:33N 52°24' E 004°49'0 0.0
2016-Jun-26 10:33N 52°24' E 004°49'0 0.0
2016-Jun-26 09:33N 52°24' E 004°49'0 0.0
2016-Jun-26 08:33N 52°24' E 004°49'0 0.0
2016-Jun-26 07:33N 52°24' E 004°49'0 0.0
2016-Jun-26 06:30N 52°24' E 004°49'0 0.0
2016-Jun-26 05:33N 52°24' E 004°49'0 0.0
2016-Jun-26 04:33N 52°24' E 004°49'0 0.0
2016-Jun-26 03:33N 52°24' E 004°49'0 0.0
2016-Jun-26 02:33N 52°24' E 004°49'0 0.0
2016-Jun-26 01:33N 52°24' E 004°49'0 0.0
2016-Jun-26 00:33N 52°24' E 004°49'0 0.0
2016-Jun-25 23:33N 52°24' E 004°49'0 0.0
2016-Jun-25 22:33N 52°24' E 004°49'0 0.0
2016-Jun-25 21:33N 52°24' E 004°49'0 0.0
2016-Jun-25 20:33N 52°24' E 004°49'0 0.0
2016-Jun-25 19:33N 52°24' E 004°49'0 0.0
2016-Jun-25 18:33N 52°24' E 004°49'0 0.0
2016-Jun-25 17:33N 52°24' E 004°49'0 0.0
2016-Jun-25 16:30N 52°24' E 004°49'0 0.0
2016-Jun-25 15:33N 52°24' E 004°49'0 0.0
2016-Jun-25 14:33N 52°24' E 004°49'0 0.0
2016-Jun-25 13:33N 52°24' E 004°49'0 0.0
2016-Jun-25 12:33N 52°24' E 004°49'0 0.0
2016-Jun-25 11:33N 52°24' E 004°49'0 0.0
2016-Jun-25 10:33N 52°24' E 004°49'0 0.0
2016-Jun-25 09:30N 52°24' E 004°49'0 0.0
2016-Jun-25 08:33N 52°24' E 004°49'0 0.0
2016-Jun-25 07:33N 52°24' E 004°49'0 0.0
2016-Jun-25 06:33N 52°24' E 004°49'0 0.0
2016-Jun-25 05:33N 52°24' E 004°49'0 0.0
2016-Jun-25 04:30N 52°24' E 004°49'0 0.0
2016-Jun-25 03:33N 52°24' E 004°49'0 0.0
2016-Jun-25 02:33N 52°24' E 004°49'0 0.0
2016-Jun-25 01:33N 52°24' E 004°49'0 0.0
2016-Jun-25 00:33N 52°24' E 004°49'0 0.0
2016-Jun-24 23:33N 52°24' E 004°49'0 0.0
2016-Jun-24 22:33N 52°24' E 004°49'0 0.0
2016-Jun-24 21:33N 52°24' E 004°49'0 0.0
2016-Jun-24 20:33N 52°24' E 004°49'0 0.0
2016-Jun-24 19:33N 52°24' E 004°49'0 0.0
2016-Jun-24 18:33N 52°24' E 004°49'0 0.0
2016-Jun-24 17:30N 52°24' E 004°49'0 0.0
2016-Jun-24 16:33N 52°24' E 004°49'0 0.0
2016-Jun-24 15:33N 52°24' E 004°49'0 0.0
2016-Jun-24 14:33N 52°24' E 004°49'0 0.0
2016-Jun-24 13:33N 52°24' E 004°49'0 0.0
2016-Jun-24 12:33N 52°24' E 004°49'0 0.0
2016-Jun-24 11:33N 52°24' E 004°49'0 0.0
2016-Jun-24 10:33N 52°24' E 004°49'0 0.0
2016-Jun-24 09:33N 52°24' E 004°49'0 0.0
2016-Jun-24 08:33N 52°24' E 004°49'0 0.0
2016-Jun-24 07:33N 52°24' E 004°49'0 0.0
2016-Jun-24 04:33N 52°24' E 004°49'0 0.0
2016-Jun-24 03:33N 52°24' E 004°49'0 0.0
2016-Jun-24 02:30N 52°24' E 004°49'0 0.0
2016-Jun-24 01:30N 52°24' E 004°49'0 0.0
2016-Jun-24 00:30N 52°24' E 004°49'0 0.0
2016-Jun-23 23:33N 52°24' E 004°49'0 0.0
2016-Jun-23 22:33N 52°24' E 004°49'0 0.0
2016-Jun-23 21:33N 52°24' E 004°49'0 0.0
2016-Jun-23 20:33N 52°24' E 004°49'0 0.0
2016-Jun-23 19:33N 52°24' E 004°49'0 0.0
2016-Jun-23 18:33N 52°24' E 004°49'0 0.0
2016-Jun-23 17:33N 52°24' E 004°49'0 0.0
2016-Jun-23 16:33N 52°24' E 004°49'0 0.0
2016-Jun-23 15:33N 52°24' E 004°49'0 0.0
2016-Jun-23 14:33N 52°24' E 004°49'0 0.0
2016-Jun-23 13:33N 52°24' E 004°49'0 0.0
2016-Jun-23 12:33N 52°24' E 004°49'0 0.0
2016-Jun-23 11:33N 52°24' E 004°49'0 0.0
2016-Jun-23 10:27N 52°24' E 004°49'0 0.0
2016-Jun-23 09:33N 52°24' E 004°49'0 0.0
2016-Jun-23 08:33N 52°24' E 004°49'0 0.0
2016-Jun-23 07:33N 52°24' E 004°49'0 0.0
2016-Jun-23 05:33N 52°24' E 004°49'0 0.0
2016-Jun-23 04:33N 52°24' E 004°49'0 0.0
2016-Jun-23 03:33N 52°24' E 004°49'0 0.0
2016-Jun-23 02:33N 52°24' E 004°49'0 0.0
2016-Jun-23 01:33N 52°24' E 004°49'0 0.0
2016-Jun-23 00:33N 52°24' E 004°49'0 0.0
2016-Jun-22 23:33N 52°24' E 004°49'0 0.0
2016-Jun-22 22:33N 52°24' E 004°49'0 0.0
2016-Jun-22 21:33N 52°24' E 004°49'0 0.0
2016-Jun-22 20:33N 52°24' E 004°49'0 0.0
2016-Jun-22 19:33N 52°24' E 004°49'0 0.0
2016-Jun-22 18:33N 52°24' E 004°49'0 0.0
2016-Jun-22 17:33N 52°24' E 004°49'0 0.0
2016-Jun-22 16:33N 52°24' E 004°49'0 0.0
2016-Jun-22 15:33N 52°24' E 004°49'1 1.5
2016-Jun-22 14:34N 52°25' E 004°49'8 8.2
2016-Jun-22 13:33N 52°28' E 004°36'1 0.7
2016-Jun-22 12:34N 52°28' E 004°35'8 8.3
2016-Jun-22 11:33N 52°28' E 004°21'1111.1
2016-Jun-22 10:33N 52°28' E 004°03'3 1.6
2016-Jun-22 08:28N 52°26' E 003°59'0 0.1
2016-Jun-22 07:31N 52°26' E 003°59'0 0.0
2016-Jun-22 06:31N 52°26' E 003°59'0 0.0
2016-Jun-22 05:28N 52°26' E 003°59'0 0.0
2016-Jun-22 04:31N 52°26' E 003°59'0 0.0
2016-Jun-22 03:31N 52°26' E 003°59'0 0.0
2016-Jun-22 02:19N 52°26' E 003°59'0 0.0
2016-Jun-22 01:22N 52°26' E 003°59'0 0.1
2016-Jun-21 23:22N 52°26' E 003°59'0 0.0
2016-Jun-21 20:16N 52°26' E 003°59'0 0.2
2016-Jun-21 19:28N 52°26' E 003°59'0 0.0
2016-Jun-21 18:22N 52°26' E 003°59'0 0.0
2016-Jun-21 17:31N 52°26' E 003°59'0 0.0
2016-Jun-21 16:22N 52°26' E 003°59'0 0.0
2016-Jun-21 15:22N 52°26' E 003°59'0 0.0
2016-Jun-21 14:31N 52°26' E 003°59'  

Dump ship's entire track history